Time;durP1;ratioP1;P1;durP2;ratioP2;P2;SDS_P1;SDS_P2;PMS_P1;PMS_P2;Temp;Humidity;BMP_temperature;BMP_pressure;BME280_temperature;BME280_humidity;BME280_pressure;Samples;Min_cycle;Max_cycle;Signal;HPM_P1;HPM_P2
2024/04/22 00:00:19;;;;;;;0.60;0.60;;;;;;;1.83;100.00;97155.19;29395;218;63009;-90
2024/04/22 00:00:51;;;;;;;0.70;0.70;;;;;;;1.90;100.00;97166.59;29395;202;63004;-90
2024/04/22 00:01:22;;;;;;;0.60;0.60;;;;;;;1.88;100.00;97171.38;29395;225;63008;-89
2024/04/22 00:01:53;;;;;;;0.60;0.60;;;;;;;1.86;100.00;97170.78;29395;212;63004;-90
2024/04/22 00:02:25;;;;;;;0.60;0.60;;;;;;;1.87;100.00;97167.06;29394;222;64013;-91
2024/04/22 00:02:56;;;;;;;0.60;0.60;;;;;;;1.87;100.00;97163.56;29395;277;63008;-89
2024/04/22 00:03:27;;;;;;;0.60;0.60;;;;;;;1.87;100.00;97169.72;29395;203;63016;-91
2024/04/22 00:03:59;;;;;;;0.60;0.60;;;;;;;1.86;100.00;97160.06;29395;199;63005;-87
2024/04/22 00:04:30;;;;;;;0.60;0.60;;;;;;;1.86;100.00;97173.44;29395;236;63024;-88
2024/04/22 00:05:01;;;;;;;0.60;0.60;;;;;;;1.86;100.00;97165.44;29395;214;63005;-88
2024/04/22 00:05:32;;;;;;;0.70;0.70;;;;;;;1.96;100.00;97160.31;29395;202;63009;-88
2024/04/22 00:06:04;;;;;;;0.70;0.70;;;;;;;1.96;100.00;97162.19;29395;220;63005;-90
2024/04/22 00:06:35;;;;;;;0.70;0.70;;;;;;;1.95;100.00;97158.69;29395;236;63009;-89
2024/04/22 00:07:07;;;;;;;0.60;0.60;;;;;;;1.94;100.00;97162.41;29395;234;63004;-89
2024/04/22 00:07:38;;;;;;;0.60;0.60;;;;;;;1.92;100.00;97159.16;29394;219;64013;-89
2024/04/22 00:08:09;;;;;;;0.60;0.60;;;;;;;1.92;100.00;97158.34;29395;223;63004;-91
2024/04/22 00:08:41;;;;;;;0.60;0.60;;;;;;;1.92;100.00;97163.69;29395;223;63009;-89
2024/04/22 00:09:13;;;;;;;0.60;0.60;;;;;;;1.90;100.00;97166.59;29394;215;64008;-89
2024/04/22 00:09:47;;;;;;;0.60;0.60;;;;;;;1.89;100.00;97159.63;29395;227;63009;-89
2024/04/22 00:10:19;;;;;;;0.60;0.60;;;;;;;1.87;100.00;97159.03;29395;250;63005;-88
2024/04/22 00:11:00;;;;;;;0.60;0.60;;;;;;;1.88;100.00;97167.88;29395;227;63009;-88
2024/04/22 00:11:32;;;;;;;0.60;0.60;;;;;;;1.88;100.00;97163.34;29395;366;63005;-88
2024/04/22 00:12:05;;;;;;;0.60;0.60;;;;;;;1.89;100.00;97167.66;29395;220;63009;-90
2024/04/22 00:12:39;;;;;;;0.60;0.60;;;;;;;1.86;100.00;97165.44;29394;340;64005;-88
2024/04/22 00:13:10;;;;;;;0.60;0.60;;;;;;;1.83;100.00;97157.84;29394;203;64013;-88
2024/04/22 00:13:41;;;;;;;0.60;0.60;;;;;;;1.81;100.00;97162.62;29395;265;63005;-88
2024/04/22 00:14:12;;;;;;;0.60;0.60;;;;;;;1.81;100.00;97157.28;29395;238;63009;-88
2024/04/22 00:14:44;;;;;;;0.60;0.60;;;;;;;1.82;100.00;97158.09;29395;353;63004;-88
2024/04/22 00:15:15;;;;;;;0.60;0.60;;;;;;;1.83;100.00;97159.72;29395;203;63009;-89
2024/04/22 00:15:46;;;;;;;0.60;0.60;;;;;;;1.82;100.00;97161.59;29395;233;63004;-89
2024/04/22 00:16:18;;;;;;;0.60;0.60;;;;;;;1.82;100.00;97164.25;29395;197;63009;-88
2024/04/22 00:16:49;;;;;;;0.60;0.60;;;;;;;1.83;100.00;97159.72;29395;203;63000;-88
2024/04/22 00:17:20;;;;;;;0.60;0.60;;;;;;;1.84;100.00;97162.16;29395;210;63015;-89
2024/04/22 00:17:51;;;;;;;0.60;0.60;;;;;;;1.85;100.00;97163.78;29395;209;63005;-89
2024/04/22 00:18:23;;;;;;;0.60;0.60;;;;;;;1.82;100.00;97164.25;29394;304;64014;-88
2024/04/22 00:18:54;;;;;;;0.60;0.60;;;;;;;1.81;100.00;97161.81;29394;216;64009;-90
2024/04/22 00:19:25;;;;;;;0.70;0.70;;;;;;;1.79;100.00;97158.53;29395;233;63009;-89
2024/04/22 00:19:58;;;;;;;0.60;0.60;;;;;;;1.76;100.00;97165.16;29395;239;63005;-89
2024/04/22 00:20:30;;;;;;;0.80;0.80;;;;;;;1.80;100.00;97161.00;29395;233;63009;-88
2024/04/22 00:21:01;;;;;;;0.70;0.70;;;;;;;1.80;100.00;97166.34;29395;209;63005;-89
2024/04/22 00:21:33;;;;;;;0.60;0.60;;;;;;;1.83;100.00;97165.87;29395;267;63009;-87
2024/04/22 00:22:04;;;;;;;0.60;0.60;;;;;;;1.84;100.00;97162.16;29394;404;64009;-90
2024/04/22 00:22:35;;;;;;;0.82;0.82;;;;;;;1.86;100.00;97160.06;29395;286;63009;-89
2024/04/22 00:23:06;;;;;;;0.60;0.60;;;;;;;1.87;100.00;97163.56;29395;215;63004;-89
2024/04/22 00:23:38;;;;;;;0.60;0.60;;;;;;;1.83;100.00;97159.72;29395;211;63009;-89
2024/04/22 00:24:10;;;;;;;0.60;0.60;;;;;;;1.81;100.00;97162.62;29395;215;63004;-88
2024/04/22 00:24:41;;;;;;;0.60;0.60;;;;;;;1.82;100.00;97164.25;29395;232;63008;-90
2024/04/22 00:25:13;;;;;;;0.60;0.60;;;;;;;1.82;100.00;97164.25;29395;234;63005;-88
2024/04/22 00:25:44;;;;;;;0.60;0.60;;;;;;;1.84;100.00;97164.03;29395;302;63009;-89
2024/04/22 00:26:15;;;;;;;0.60;0.60;;;;;;;1.84;100.00;97159.50;29395;310;63005;-86
2024/04/22 00:26:47;;;;;;;0.60;0.60;;;;;;;1.86;100.00;97165.44;29395;353;63009;-88
2024/04/22 00:27:18;;;;;;;0.60;0.60;;;;;;;1.88;100.00;97167.88;29394;223;64009;-89
2024/04/22 00:27:49;;;;;;;0.65;0.65;;;;;;;1.92;100.00;97166.37;29395;235;63009;-89
2024/04/22 00:28:21;;;;;;;0.60;0.60;;;;;;;1.97;100.00;97161.16;29395;235;63009;-88
2024/04/22 00:28:52;;;;;;;0.60;0.60;;;;;;;1.99;100.00;97157.19;29395;202;63009;-89
2024/04/22 00:29:23;;;;;;;0.60;0.60;;;;;;;1.98;100.00;97163.59;29395;249;63004;-88
2024/04/22 00:29:55;;;;;;;0.60;0.60;;;;;;;1.97;100.00;97161.97;29395;228;63009;-88
2024/04/22 00:30:26;;;;;;;0.60;0.60;;;;;;;1.97;100.00;97161.97;29395;228;63004;-88
2024/04/22 00:30:57;;;;;;;0.60;0.60;;;;;;;1.93;100.00;97160.78;29395;229;63009;-89
2024/04/22 00:31:28;;;;;;;0.60;0.60;;;;;;;1.95;100.00;97164.03;29395;228;63004;-90
2024/04/22 00:31:59;;;;;;;0.60;0.60;;;;;;;1.93;100.00;97159.97;29395;228;63008;-90
2024/04/22 00:32:30;;;;;;;0.60;0.60;;;;;;;1.92;100.00;97163.69;29394;231;64009;-89
2024/04/22 00:33:02;;;;;;;0.60;0.60;;;;;;;1.93;100.00;97163.47;29395;224;63009;-89
2024/04/22 00:33:33;;;;;;;0.60;0.60;;;;;;;1.95;100.00;97166.72;29394;214;64009;-90
2024/04/22 00:34:05;;;;;;;0.60;0.60;;;;;;;1.93;100.00;97166.13;29395;223;63009;-89
2024/04/22 00:34:36;;;;;;;0.60;0.60;;;;;;;1.93;100.00;97163.47;29395;207;63005;-88
2024/04/22 00:35:07;;;;;;;0.60;0.60;;;;;;;1.92;100.00;97159.16;29395;251;63009;-89
2024/04/22 00:35:39;;;;;;;0.60;0.60;;;;;;;1.92;100.00;97155.66;29395;220;63005;-90
2024/04/22 00:36:10;;;;;;;0.60;0.60;;;;;;;1.92;100.00;97159.16;29395;205;63009;-88
2024/04/22 00:36:41;;;;;;;0.60;0.60;;;;;;;1.84;100.00;97154.12;29395;262;63004;-89
2024/04/22 00:37:13;;;;;;;0.60;0.60;;;;;;;1.91;100.00;97160.19;29395;356;63009;-88
2024/04/22 00:37:44;;;;;;;0.60;0.60;;;;;;;1.90;100.00;97155.09;29395;403;63004;-89
2024/04/22 00:38:15;;;;;;;0.60;0.60;;;;;;;1.94;100.00;97162.41;29395;238;63009;-89
2024/04/22 00:38:47;;;;;;;0.60;0.60;;;;;;;1.92;100.00;97159.16;29394;237;64009;-88
2024/04/22 00:39:18;;;;;;;0.60;0.60;;;;;;;1.91;100.00;97159.38;29395;227;63008;-89
2024/04/22 00:39:49;;;;;;;0.60;0.60;;;;;;;1.88;100.00;97163.34;29395;220;63004;-89
2024/04/22 00:40:20;;;;;;;0.60;0.60;;;;;;;1.87;100.00;97161.72;29395;203;63009;-88
2024/04/22 00:40:52;;;;;;;0.60;0.60;;;;;;;1.85;100.00;97158.44;29394;214;64009;-89
2024/04/22 00:41:25;;;;;;;0.60;0.60;;;;;;;1.84;100.00;97161.34;29395;202;63009;-88
2024/04/22 00:41:56;;;;;;;0.60;0.60;;;;;;;1.83;100.00;97160.53;29395;232;63005;-88
2024/04/22 00:42:27;;;;;;;0.60;0.60;;;;;;;1.85;100.00;97153.09;29395;199;63009;-88
2024/04/22 00:42:59;;;;;;;0.60;0.60;;;;;;;1.87;100.00;97159.03;29395;231;63005;-89
2024/04/22 00:43:30;;;;;;;0.60;0.60;;;;;;;1.87;100.00;97153.69;29395;211;63009;-88
2024/04/22 00:44:02;;;;;;;0.60;0.60;;;;;;;1.88;100.00;97157.97;29395;209;63016;-90
2024/04/22 00:44:33;;;;;;;0.70;0.70;;;;;;;1.86;100.00;97153.91;29394;205;64013;-90
2024/04/22 00:45:05;;;;;;;0.60;0.60;;;;;;;1.85;100.00;97158.44;29395;197;63004;-88
2024/04/22 00:45:37;;;;;;;0.60;0.60;;;;;;;1.85;100.00;97152.28;29395;210;63009;-88
2024/04/22 00:46:09;;;;;;;0.60;0.60;;;;;;;1.86;100.00;97157.41;29394;250;64009;-90
2024/04/22 00:46:44;;;;;;;0.60;0.60;;;;;;;1.87;100.00;97151.00;29395;211;63014;-88
2024/04/22 00:47:15;;;;;;;0.60;0.60;;;;;;;1.89;100.00;97153.44;29395;202;63004;-90
2024/04/22 00:47:47;;;;;;;0.60;0.60;;;;;;;1.89;100.00;97159.63;29395;260;63014;-88
2024/04/22 00:48:22;;;;;;;0.60;0.60;;;;;;;1.88;100.00;97152.63;29395;220;63018;-89
2024/04/22 00:48:54;;;;;;;0.60;0.60;;;;;;;1.88;100.00;97157.97;29395;246;63009;-89
2024/04/22 00:49:26;;;;;;;0.60;0.60;;;;;;;1.88;100.00;97152.63;29395;220;63007;-89
2024/04/22 00:49:57;;;;;;;0.60;0.60;;;;;;;1.88;100.00;97152.63;29394;211;64013;-90
2024/04/22 00:50:30;;;;;;;0.60;0.60;;;;;;;1.89;100.00;97154.25;29395;225;63010;-88
2024/04/22 00:51:02;;;;;;;0.60;0.60;;;;;;;1.90;100.00;97150.53;29395;203;63009;-88
2024/04/22 00:51:33;;;;;;;0.60;0.60;;;;;;;1.89;100.00;97154.25;29395;202;63005;-88
2024/04/22 00:52:06;;;;;;;0.60;0.60;;;;;;;1.88;100.00;97152.63;29395;234;63009;-89
2024/04/22 00:52:39;;;;;;;0.60;0.60;;;;;;;1.88;100.00;97152.63;29395;229;63004;-89
2024/04/22 00:53:12;;;;;;;0.60;0.60;;;;;;;1.88;100.00;97152.63;29395;236;63012;-89
2024/04/22 00:53:45;;;;;;;0.60;0.60;;;;;;;1.90;100.00;97155.91;29395;270;63004;-89
2024/04/22 00:54:17;;;;;;;0.60;0.60;;;;;;;1.90;100.00;97155.91;29395;247;63008;-89
2024/04/22 00:54:49;;;;;;;0.60;0.60;;;;;;;1.91;100.00;97157.53;29394;201;63999;-91
2024/04/22 00:55:21;;;;;;;0.60;0.60;;;;;;;1.91;100.00;97154.03;29395;208;63009;-89
2024/04/22 00:55:56;;;;;;;0.60;0.60;;;;;;;1.91;100.00;97149.50;29395;273;63005;-89
2024/04/22 00:56:28;;;;;;;0.60;0.60;;;;;;;1.91;100.00;97157.53;29394;203;64014;-90
2024/04/22 00:57:01;;;;;;;0.60;0.60;;;;;;;1.92;100.00;97156.47;29395;209;63005;-89
2024/04/22 00:57:33;;;;;;;0.60;0.60;;;;;;;1.90;100.00;97150.53;29394;288;64009;-88
2024/04/22 00:58:06;;;;;;;0.80;0.80;;;;;;;1.88;100.00;97155.31;29395;321;63005;-89
2024/04/22 00:58:38;;;;;;;0.60;0.60;;;;;;;1.85;100.00;97158.44;29395;245;63009;-90
2024/04/22 00:59:10;;;;;;;0.60;0.60;;;;;;;1.85;100.00;97162.97;29395;212;63011;-90
2024/04/22 00:59:42;;;;;;;0.60;0.60;;;;;;;1.85;100.00;97153.09;29394;253;64013;-88
2024/04/22 01:00:13;;;;;;;0.60;0.60;;;;;;;1.84;100.00;97156.81;29395;205;63004;-90
2024/04/22 01:00:46;;;;;;;0.60;0.60;;;;;;;1.82;100.00;97158.91;29395;219;63009;-88
2024/04/22 01:01:18;;;;;;;0.60;0.60;;;;;;;1.81;100.00;97159.94;29395;222;63004;-89
2024/04/22 01:01:49;;;;;;;0.60;0.60;;;;;;;1.82;100.00;97153.56;29395;202;63008;-89
2024/04/22 01:02:21;;;;;;;0.70;0.70;;;;;;;1.82;100.00;97156.22;29395;310;63004;-89
2024/04/22 01:02:53;;;;;;;0.60;0.60;;;;;;;1.84;100.00;97156.81;29395;223;63009;-89
2024/04/22 01:03:25;;;;;;;0.70;0.70;;;;;;;1.84;100.00;97156.00;29395;227;63005;-89
2024/04/22 01:03:56;;;;;;;0.60;0.60;;;;;;;1.85;100.00;97158.44;29395;232;63009;-87
2024/04/22 01:04:29;;;;;;;0.60;0.60;;;;;;;1.88;100.00;97159.84;29395;239;63005;-88
2024/04/22 01:05:01;;;;;;;0.60;0.60;;;;;;;1.86;100.00;97149.38;29394;219;64013;-90
2024/04/22 01:05:36;;;;;;;0.60;0.60;;;;;;;1.85;100.00;97163.78;29395;202;63005;-89
2024/04/22 01:06:07;;;;;;;0.60;0.60;;;;;;;1.84;100.00;97156.81;29395;211;63009;-90
2024/04/22 01:06:38;;;;;;;0.60;0.60;;;;;;;1.82;100.00;97161.59;29395;224;63004;-90
2024/04/22 01:07:10;;;;;;;0.60;0.60;;;;;;;1.80;100.00;97152.97;29395;225;63009;-90
2024/04/22 01:07:42;;;;;;;0.60;0.60;;;;;;;1.81;100.00;97157.28;29395;213;63004;-89
2024/04/22 01:08:14;;;;;;;0.60;0.60;;;;;;;1.79;100.00;97154.00;29395;228;63009;-88
2024/04/22 01:08:45;;;;;;;0.60;0.60;;;;;;;1.79;100.00;97159.38;29395;224;63004;-91
2024/04/22 01:09:17;;;;;;;0.70;0.70;;;;;;;1.80;100.00;97152.97;29395;196;63008;-89
2024/04/22 01:09:50;;;;;;;0.60;0.60;;;;;;;1.82;100.00;97158.09;29394;207;64008;-88
2024/04/22 01:10:23;;;;;;;0.70;0.70;;;;;;;1.83;100.00;97155.19;29395;225;63009;-88
2024/04/22 01:10:55;;;;;;;0.60;0.60;;;;;;;1.84;100.00;97159.50;29395;241;63005;-89
2024/04/22 01:11:26;;;;;;;0.60;0.60;;;;;;;1.81;100.00;97159.94;29395;214;63009;-89
2024/04/22 01:11:57;;;;;;;0.60;0.60;;;;;;;1.81;100.00;97157.28;29395;219;63015;-87
2024/04/22 01:12:29;;;;;;;0.60;0.60;;;;;;;1.81;100.00;97156.47;29395;203;63009;-90
2024/04/22 01:13:04;;;;;;;0.60;0.60;;;;;;;1.82;100.00;97158.09;29395;289;63005;-88
2024/04/22 01:13:35;;;;;;;0.60;0.60;;;;;;;1.83;100.00;97152.50;29395;208;63009;-89
2024/04/22 01:14:08;;;;;;;0.60;0.60;;;;;;;1.84;100.00;97159.50;29395;197;63004;-88
2024/04/22 01:14:39;;;;;;;0.60;0.60;;;;;;;1.83;100.00;97159.72;29394;269;64013;-89
2024/04/22 01:15:11;;;;;;;0.60;0.60;;;;;;;1.84;100.00;97150.66;29395;271;63004;-89
2024/04/22 01:15:44;;;;;;;0.60;0.60;;;;;;;1.86;100.00;97156.59;29395;228;63009;-89
2024/04/22 01:16:15;;;;;;;0.60;0.60;;;;;;;1.85;100.00;97153.09;29395;212;63004;-90
2024/04/22 01:16:55;;;;;;;0.60;0.60;;;;;;;1.82;100.00;97150.06;29395;221;63009;-88
2024/04/22 01:17:38;;;;;;;0.60;0.60;;;;;;;1.81;100.00;97151.09;29416;211;64009;-88
2024/04/22 01:18:18;;;;;;;0.60;0.60;;;;;;;1.83;100.00;97159.72;29394;285;64014;-88
2024/04/22 01:18:50;;;;;;;0.70;0.70;;;;;;;1.84;100.00;97156.00;29438;232;64009;-89
2024/04/22 01:19:22;;;;;;;0.60;0.60;;;;;;;1.84;100.00;97153.31;29373;229;63017;-89
2024/04/22 01:19:53;;;;;;;0.60;0.60;;;;;;;1.84;100.00;97156.81;29395;232;63005;-90
2024/04/22 01:20:26;;;;;;;0.60;0.60;;;;;;;1.82;100.00;97150.87;29394;234;64013;-90
2024/04/22 01:20:57;;;;;;;0.60;0.60;;;;;;;1.79;100.00;97151.34;29395;221;63000;-90
2024/04/22 01:21:28;;;;;;;0.60;0.60;;;;;;;1.82;100.00;97150.87;29395;240;63009;-90
2024/04/22 01:21:59;;;;;;;0.60;0.60;;;;;;;1.82;100.00;97156.22;29395;280;63004;-88
2024/04/22 01:22:31;;;;;;;0.60;0.60;;;;;;;1.85;100.00;97146.94;29394;222;64013;-89
2024/04/22 01:23:02;;;;;;;0.60;0.60;;;;;;;1.85;100.00;97149.59;29395;294;63004;-88
2024/04/22 01:23:34;;;;;;;0.60;0.60;;;;;;;1.85;100.00;97145.06;29395;196;63008;-90
2024/04/22 01:24:06;;;;;;;0.60;0.60;;;;;;;1.85;100.00;97147.75;29395;203;63004;-88
2024/04/22 01:24:38;;;;;;;0.60;0.60;;;;;;;1.86;100.00;97148.56;29395;209;63009;-89
2024/04/22 01:25:10;;;;;;;0.60;0.60;;;;;;;1.86;100.00;97144.03;29395;345;63005;-87
2024/04/22 01:25:47;;;;;;;0.60;0.60;;;;;;;1.86;100.00;97145.88;29394;213;64014;-89
2024/04/22 01:26:18;;;;;;;0.60;0.60;;;;;;;1.86;100.00;97144.03;29395;197;63005;-89
2024/04/22 01:26:53;;;;;;;0.60;0.60;;;;;;;1.86;100.00;97149.38;29395;211;63019;-89
2024/04/22 01:27:26;;;;;;;0.60;0.60;;;;;;;1.87;100.00;97150.19;29395;233;63005;-88
2024/04/22 01:27:58;;;;;;;0.60;0.60;;;;;;;1.85;100.00;97147.75;29395;237;63009;-89
2024/04/22 01:28:33;;;;;;;0.60;0.60;;;;;;;1.85;100.00;97144.25;29395;207;63005;-90
2024/04/22 01:29:04;;;;;;;0.60;0.60;;;;;;;1.85;100.00;97147.75;29395;219;63009;-90
2024/04/22 01:29:36;;;;;;;0.60;0.60;;;;;;;1.85;100.00;97139.72;29395;305;63004;-89
2024/04/22 01:30:08;;;;;;;0.70;0.70;;;;;;;1.85;100.00;97139.72;29395;226;63009;-89
2024/04/22 01:30:39;;;;;;;0.60;0.60;;;;;;;1.84;100.00;97140.75;29394;250;64009;-89
2024/04/22 01:31:10;;;;;;;0.60;0.60;;;;;;;1.86;100.00;97149.38;29395;212;63008;-89
2024/04/22 01:31:42;;;;;;;0.60;0.60;;;;;;;1.85;100.00;97141.56;29395;229;63004;-88
2024/04/22 01:32:13;;;;;;;0.52;0.52;;;;;;;1.85;100.00;97142.37;29395;238;63009;-90
2024/04/22 01:32:44;;;;;;;0.60;0.60;;;;;;;1.85;100.00;97136.22;29395;230;63005;-90
2024/04/22 01:33:16;;;;;;;0.60;0.60;;;;;;;1.84;100.00;97138.09;29394;224;64014;-89
2024/04/22 01:33:47;;;;;;;0.60;0.60;;;;;;;1.84;100.00;97146.12;29395;207;63005;-90
2024/04/22 01:34:19;;;;;;;0.60;0.60;;;;;;;1.83;100.00;97133.78;29395;209;63009;-88
2024/04/22 01:34:54;;;;;;;0.60;0.60;;;;;;;1.80;100.00;97139.59;29395;202;63005;-91
2024/04/22 01:35:25;;;;;;;0.60;0.60;;;;;;;1.77;100.00;97133.88;29395;280;63009;-89
2024/04/22 01:35:56;;;;;;;0.60;0.60;;;;;;;1.75;100.00;97136.78;29395;319;63005;-88
2024/04/22 01:36:27;;;;;;;0.60;0.60;;;;;;;1.75;100.00;97134.13;29395;202;63009;-89
2024/04/22 01:36:58;;;;;;;0.60;0.60;;;;;;;1.77;100.00;97140.03;29395;222;63004;-89
2024/04/22 01:37:30;;;;;;;0.60;0.60;;;;;;;1.77;100.00;97134.69;29395;211;63009;-88
2024/04/22 01:38:01;;;;;;;0.60;0.60;;;;;;;1.79;100.00;97137.16;29395;202;63004;-89
2024/04/22 01:38:32;;;;;;;0.60;0.60;;;;;;;1.79;100.00;97143.31;29394;197;64013;-89
2024/04/22 01:39:04;;;;;;;0.60;0.60;;;;;;;1.78;100.00;97143.53;29395;208;63004;-89
2024/04/22 01:39:35;;;;;;;0.60;0.60;;;;;;;1.76;100.00;97133.06;29395;215;63009;-88
2024/04/22 01:40:08;;;;;;;0.60;0.60;;;;;;;1.75;100.00;97141.31;29395;211;63005;-90
2024/04/22 01:40:39;;;;;;;0.70;0.70;;;;;;;1.74;100.00;97145.84;29394;235;64014;-89
2024/04/22 01:41:11;;;;;;;0.60;0.60;;;;;;;1.76;100.00;97135.75;29395;198;63005;-89
2024/04/22 01:41:42;;;;;;;0.60;0.60;;;;;;;1.78;100.00;97136.31;29395;211;63021;-88
2024/04/22 01:42:14;;;;;;;0.70;0.70;;;;;;;1.81;100.00;97140.41;29395;218;63005;-90
2024/04/22 01:42:45;;;;;;;0.60;0.60;;;;;;;1.82;100.00;97142.84;29395;274;63009;-88
2024/04/22 01:43:16;;;;;;;0.60;0.60;;;;;;;1.83;100.00;97141.00;29395;220;63005;-89
2024/04/22 01:43:47;;;;;;;0.60;0.60;;;;;;;1.84;100.00;97140.75;29395;233;63021;-89
2024/04/22 01:44:19;;;;;;;0.60;0.60;;;;;;;1.85;100.00;97139.72;29395;212;63004;-88
2024/04/22 01:44:51;;;;;;;0.60;0.60;;;;;;;1.85;100.00;97136.22;29395;209;63009;-89
2024/04/22 01:45:22;;;;;;;0.60;0.60;;;;;;;1.84;100.00;97135.41;29395;218;63004;-90
2024/04/22 01:45:55;;;;;;;0.60;0.60;;;;;;;1.81;100.00;97137.72;29394;202;64013;-89
2024/04/22 01:46:26;;;;;;;0.60;0.60;;;;;;;1.78;100.00;97133.66;29394;276;64008;-90
2024/04/22 01:46:59;;;;;;;0.60;0.60;;;;;;;1.77;100.00;97134.69;29395;283;63009;-89
2024/04/22 01:47:30;;;;;;;0.60;0.60;;;;;;;1.76;100.00;97141.09;29395;211;63005;-89
2024/04/22 01:48:01;;;;;;;0.60;0.60;;;;;;;1.77;100.00;97137.38;29395;224;63009;-89
2024/04/22 01:48:32;;;;;;;0.60;0.60;;;;;;;1.77;100.00;97139.22;29395;210;63005;-90
2024/04/22 01:49:04;;;;;;;0.60;0.60;;;;;;;1.74;100.00;97135.16;29395;220;63009;-89
2024/04/22 01:49:35;;;;;;;0.60;0.60;;;;;;;1.72;100.00;97136.47;29395;197;63005;-89
2024/04/22 01:50:08;;;;;;;0.60;0.60;;;;;;;1.69;100.00;97137.72;29395;216;63009;-90
2024/04/22 01:50:39;;;;;;;0.60;0.60;;;;;;;1.68;100.00;97141.44;29395;237;63005;-88
2024/04/22 01:51:10;;;;;;;0.60;0.60;;;;;;;1.69;100.00;97140.41;29395;206;63009;-88
2024/04/22 01:51:42;;;;;;;0.60;0.60;;;;;;;1.70;100.00;97134.00;29394;301;64009;-88
2024/04/22 01:52:14;;;;;;;0.60;0.60;;;;;;;1.70;100.00;97139.38;29395;197;63009;-88
2024/04/22 01:52:45;;;;;;;0.60;0.60;;;;;;;1.71;100.00;97141.00;29395;203;63004;-89
2024/04/22 01:53:17;;;;;;;0.60;0.60;;;;;;;1.72;100.00;97139.94;29395;202;63009;-89
2024/04/22 01:53:51;;;;;;;0.60;0.60;;;;;;;1.73;100.00;97138.91;29395;224;63004;-88
2024/04/22 01:54:22;;;;;;;0.60;0.60;;;;;;;1.72;100.00;97142.63;29395;198;63008;-89
2024/04/22 01:54:53;;;;;;;0.60;0.60;;;;;;;1.73;100.00;97138.09;29395;225;63005;-89
2024/04/22 01:55:24;;;;;;;0.60;0.60;;;;;;;1.70;100.00;97139.38;29395;305;63009;-87
2024/04/22 01:55:59;;;;;;;0.60;0.60;;;;;;;1.68;100.00;97142.28;29395;197;63011;-90
2024/04/22 01:56:31;;;;;;;0.60;0.60;;;;;;;1.67;100.00;97145.16;29394;202;64013;-89
2024/04/22 01:57:03;;;;;;;0.60;0.60;;;;;;;1.67;100.00;97139.81;29395;199;63005;-90
2024/04/22 01:57:34;;;;;;;0.60;0.60;;;;;;;1.66;100.00;97143.53;29395;197;63009;-88
2024/04/22 01:58:05;;;;;;;0.60;0.60;;;;;;;1.63;100.00;97136.78;29395;218;63005;-89
2024/04/22 01:58:36;;;;;;;0.60;0.60;;;;;;;1.63;100.00;97138.66;29395;218;63016;-88
2024/04/22 01:59:07;;;;;;;0.60;0.60;;;;;;;1.63;100.00;97144.00;29395;237;63004;-88
2024/04/22 01:59:39;;;;;;;0.60;0.60;;;;;;;1.62;100.00;97142.37;29395;355;63009;-89
2024/04/22 02:00:12;;;;;;;0.60;0.60;;;;;;;1.60;100.00;97133.75;29395;198;63004;-89
2024/04/22 02:00:43;;;;;;;0.60;0.60;;;;;;;1.61;100.00;97135.37;29395;340;63009;-87
2024/04/22 02:01:14;;;;;;;0.60;0.60;;;;;;;1.60;100.00;97139.09;29395;217;63004;-88
2024/04/22 02:01:46;;;;;;;0.60;0.60;;;;;;;1.61;100.00;97135.37;29394;231;64013;-89
2024/04/22 02:02:17;;;;;;;0.60;0.60;;;;;;;1.60;100.00;97137.25;29395;222;63013;-88
2024/04/22 02:02:48;;;;;;;0.60;0.60;;;;;;;1.60;100.00;97139.09;29395;269;63009;-88
2024/04/22 02:03:19;;;;;;;0.60;0.60;;;;;;;1.60;100.00;97139.09;29394;346;64009;-89
2024/04/22 02:03:50;;;;;;;0.60;0.60;;;;;;;1.59;100.00;97140.97;29395;204;63009;-89
2024/04/22 02:04:22;;;;;;;0.60;0.60;;;;;;;1.60;100.00;97139.09;29395;369;63005;-88
2024/04/22 02:04:53;;;;;;;0.60;0.60;;;;;;;1.58;100.00;97139.34;29395;212;63009;-89
2024/04/22 02:05:24;;;;;;;0.60;0.60;;;;;;;1.57;100.00;97143.06;29395;202;63004;-89
2024/04/22 02:06:00;;;;;;;0.60;0.60;;;;;;;1.57;100.00;97144.91;29395;289;63009;-89
2024/04/22 02:06:31;;;;;;;0.60;0.60;;;;;;;1.59;100.00;97137.47;29395;225;63004;-88
2024/04/22 02:07:03;;;;;;;0.60;0.60;;;;;;;1.54;100.00;97129.31;29395;236;63009;-89
2024/04/22 02:07:34;;;;;;;0.60;0.60;;;;;;;1.60;100.00;97139.09;29394;282;64009;-88
2024/04/22 02:08:06;;;;;;;0.60;0.60;;;;;;;1.60;100.00;97144.44;29394;202;64013;-90
2024/04/22 02:08:38;;;;;;;0.60;0.60;;;;;;;1.61;100.00;97140.75;29394;211;64008;-89
2024/04/22 02:09:09;;;;;;;0.60;0.60;;;;;;;1.60;100.00;97139.09;29395;221;63008;-89
2024/04/22 02:09:41;;;;;;;0.60;0.60;;;;;;;1.59;100.00;97138.28;29395;198;63005;-89
2024/04/22 02:10:12;;;;;;;0.60;0.60;;;;;;;1.58;100.00;97143.87;29395;211;63009;-87
2024/04/22 02:10:43;;;;;;;0.60;0.60;;;;;;;1.56;100.00;97137.94;29395;216;63005;-89
2024/04/22 02:11:14;;;;;;;0.60;0.60;;;;;;;1.55;100.00;97138.97;29395;227;63009;-90
2024/04/22 02:11:45;;;;;;;0.60;0.60;;;;;;;1.53;100.00;97144.56;29395;240;63005;-88
2024/04/22 02:12:17;;;;;;;0.60;0.60;;;;;;;1.54;100.00;97140.03;29395;202;63009;-89
2024/04/22 02:12:48;;;;;;;0.60;0.60;;;;;;;1.56;100.00;97132.59;29395;209;63005;-88
2024/04/22 02:13:19;;;;;;;0.60;0.60;;;;;;;1.58;100.00;97147.34;29395;203;63009;-89
2024/04/22 02:13:50;;;;;;;0.60;0.60;;;;;;;1.60;100.00;97136.44;29394;239;64009;-90
2024/04/22 02:14:22;;;;;;;0.60;0.60;;;;;;;1.58;100.00;97135.84;29395;199;63009;-89
2024/04/22 02:14:53;;;;;;;0.60;0.60;;;;;;;1.57;100.00;97135.03;29395;281;63004;-89
2024/04/22 02:15:24;;;;;;;0.60;0.60;;;;;;;1.58;100.00;97146.53;29395;210;63009;-89
2024/04/22 02:15:55;;;;;;;0.68;0.68;;;;;;;1.56;100.00;97132.59;29395;235;63004;-89
2024/04/22 02:16:27;;;;;;;0.60;0.60;;;;;;;1.55;100.00;97141.66;29395;209;63009;-88
2024/04/22 02:16:58;;;;;;;0.60;0.60;;;;;;;1.55;100.00;97142.47;29395;206;63005;-90
2024/04/22 02:17:30;;;;;;;0.60;0.60;;;;;;;1.56;100.00;97146.78;29394;198;64014;-89
2024/04/22 02:18:01;;;;;;;0.60;0.60;;;;;;;1.57;100.00;97132.34;29395;225;63005;-88
2024/04/22 02:18:32;;;;;;;0.60;0.60;;;;;;;1.58;100.00;97141.19;29395;211;63016;-89
2024/04/22 02:19:04;;;;;;;0.50;0.50;;;;;;;1.59;100.00;97142.81;29395;253;63005;-90
2024/04/22 02:19:35;;;;;;;0.60;0.60;;;;;;;1.60;100.00;97144.44;29395;206;63009;-89
2024/04/22 02:20:07;;;;;;;0.60;0.60;;;;;;;1.60;100.00;97139.91;29395;218;63005;-88
2024/04/22 02:20:38;;;;;;;0.60;0.60;;;;;;;1.61;100.00;97144.22;29395;221;63009;-88
2024/04/22 02:21:09;;;;;;;0.60;0.60;;;;;;;1.61;100.00;97141.56;29395;202;63004;-89
2024/04/22 02:21:40;;;;;;;0.60;0.60;;;;;;;1.62;100.00;97142.37;29395;202;63009;-89
2024/04/22 02:22:12;;;;;;;0.60;0.60;;;;;;;1.61;100.00;97141.56;29395;210;63004;-90
2024/04/22 02:22:43;;;;;;;0.60;0.60;;;;;;;1.61;100.00;97135.37;29394;202;64013;-88
2024/04/22 02:23:14;;;;;;;0.60;0.60;;;;;;;1.60;100.00;97145.28;29395;202;63004;-89
2024/04/22 02:23:46;;;;;;;0.60;0.60;;;;;;;1.59;100.00;97140.16;29395;208;63012;-88
2024/04/22 02:24:17;;;;;;;0.60;0.60;;;;;;;1.59;100.00;97138.28;29395;224;63005;-88
2024/04/22 02:24:48;;;;;;;0.60;0.60;;;;;;;1.60;100.00;97139.09;29395;212;63009;-89
2024/04/22 02:25:19;;;;;;;0.60;0.60;;;;;;;1.61;100.00;97135.37;29395;231;63005;-89
2024/04/22 02:25:50;;;;;;;0.60;0.60;;;;;;;1.61;100.00;97140.75;29395;199;63009;-88
2024/04/22 02:26:23;;;;;;;0.60;0.60;;;;;;;1.61;100.00;97138.06;29395;199;63005;-89
2024/04/22 02:26:54;;;;;;;0.60;0.60;;;;;;;1.60;100.00;97133.75;29395;392;63009;-89
2024/04/22 02:27:25;;;;;;;0.60;0.60;;;;;;;1.59;100.00;97137.47;29394;225;64009;-89
2024/04/22 02:27:56;;;;;;;0.60;0.60;;;;;;;1.55;100.00;97137.13;29394;222;64013;-88
2024/04/22 02:28:28;;;;;;;0.60;0.60;;;;;;;1.60;100.00;97134.56;29394;203;64009;-86
2024/04/22 02:28:59;;;;;;;0.60;0.60;;;;;;;1.63;100.00;97130.63;29395;243;63009;-88
2024/04/22 02:29:31;;;;;;;0.60;0.60;;;;;;;1.63;100.00;97134.13;29395;207;63004;-89
2024/04/22 02:30:02;;;;;;;0.60;0.60;;;;;;;1.66;100.00;97140.88;29395;376;63004;-89
2024/04/22 02:30:33;;;;;;;0.60;0.60;;;;;;;1.65;100.00;97137.38;29395;235;63004;-89
2024/04/22 02:31:05;;;;;;;0.60;0.60;;;;;;;1.64;100.00;97134.94;29394;196;64013;-90
2024/04/22 02:31:37;;;;;;;0.60;0.60;;;;;;;1.64;100.00;97134.94;29394;213;64009;-88